Time;durP1;ratioP1;P1;durP2;ratioP2;P2;SDS_P1;SDS_P2;PMS_P1;PMS_P2;Temp;Humidity;BMP_temperature;BMP_pressure;BME280_temperature;BME280_humidity;BME280_pressure;Samples;Min_cycle;Max_cycle;Signal;HPM_P1;HPM_P2
2023/09/17 00:03:06;;;;;;;8.10;3.60;;;;;;;;;;103763;1295;544879;-74
2023/09/17 00:06:44;;;;;;;7.60;3.60;;;;;;;;;;103782;1301;544948;-74
2023/09/17 00:10:22;;;;;;;8.50;4.30;;;;;;;;;;103711;1291;544759;-74
2023/09/17 00:13:59;;;;;;;8.70;4.50;;;;;;;;;;104169;1285;545035;-74
2023/09/17 00:17:37;;;;;;;6.90;3.90;;;;;;;;;;103750;1292;544821;-74
2023/09/17 00:21:10;;;;;;;7.70;4.40;;;;;;;;;;103896;1295;544785;-75
2023/09/17 00:24:52;;;;;;;8.70;5.10;;;;;;;;;;104150;1292;544950;-74
2023/09/17 00:28:30;;;;;;;10.10;5.50;;;;;;;;;;103761;1292;544746;-74
2023/09/17 00:32:07;;;;;;;10.00;5.30;;;;;;;;;;103743;1292;544776;-74
2023/09/17 00:35:44;;;;;;;18.50;6.10;;;;;;;;;;103798;1292;545502;-75
2023/09/17 00:39:22;;;;;;;8.50;5.60;;;;;;;;;;103788;1289;544730;-75
2023/09/17 00:43:01;;;;;;;8.70;4.80;;;;;;;;;;103733;1292;545051;-74
2023/09/17 00:46:37;;;;;;;9.30;4.90;;;;;;;;;;104028;1291;544800;-74
2023/09/17 00:50:15;;;;;;;9.70;5.80;;;;;;;;;;103653;1291;545305;-75
2023/09/17 00:53:56;;;;;;;10.60;6.40;;;;;;;;;;104108;1292;545359;-74
2023/09/17 00:57:30;;;;;;;14.50;13.00;;;;;;;;;;104151;1286;544793;-74
2023/09/17 01:01:08;;;;;;;14.30;11.90;;;;;;;;;;103996;1289;545654;-74
2023/09/17 01:04:49;;;;;;;13.20;9.80;;;;;;;;;;103619;1289;544839;-74
2023/09/17 01:08:24;;;;;;;11.60;8.20;;;;;;;;;;103763;1292;544976;-74
2023/09/17 01:12:00;;;;;;;8.70;6.00;;;;;;;;;;103852;1292;544769;-74
2023/09/17 01:15:37;;;;;;;9.80;5.60;;;;;;;;;;103723;1295;544804;-74
2023/09/17 01:19:23;;;;;;;8.20;4.60;;;;;;;;;;103625;1293;545001;-75
2023/09/17 01:22:59;;;;;;;8.30;4.10;;;;;;;;;;103815;1292;545436;-74
2023/09/17 01:26:30;;;;;;;9.30;3.80;;;;;;;;;;104106;1289;544976;-74
2023/09/17 01:30:16;;;;;;;9.70;4.20;;;;;;;;;;103775;1291;545457;-75
2023/09/17 01:33:44;;;;;;;8.70;4.00;;;;;;;;;;103814;1302;544938;-75
2023/09/17 01:37:30;;;;;;;7.30;3.60;;;;;;;;;;103777;1296;544894;-74
2023/09/17 01:41:01;;;;;;;7.60;3.70;;;;;;;;;;103711;1291;545069;-75
2023/09/17 01:44:37;;;;;;;7.30;3.30;;;;;;;;;;103828;1292;545038;-75
2023/09/17 01:48:15;;;;;;;8.20;3.70;;;;;;;;;;103762;1292;544775;-75
2023/09/17 01:51:52;;;;;;;7.00;3.70;;;;;;;;;;104642;1288;545474;-74
2023/09/17 01:55:29;;;;;;;6.80;3.50;;;;;;;;;;103788;1292;544854;-75
2023/09/17 01:59:04;;;;;;;7.40;3.60;;;;;;;;;;103615;1291;546073;-74
2023/09/17 02:02:48;;;;;;;7.90;3.90;;;;;;;;;;103911;1290;544752;-75
2023/09/17 02:06:24;;;;;;;8.10;4.00;;;;;;;;;;103838;1291;545003;-74
2023/09/17 02:10:02;;;;;;;7.60;4.00;;;;;;;;;;103776;1292;544706;-75
2023/09/17 02:13:39;;;;;;;8.60;3.70;;;;;;;;;;104089;1289;544957;-75
2023/09/17 02:17:18;;;;;;;8.40;4.40;;;;;;;;;;104040;1291;544851;-75
2023/09/17 02:21:00;;;;;;;7.30;3.50;;;;;;;;;;103859;1289;548148;-74
2023/09/17 02:24:28;;;;;;;7.70;4.10;;;;;;;;;;103693;1289;545954;-75
2023/09/17 02:28:10;;;;;;;8.00;4.40;;;;;;;;;;103725;1292;544800;-74
2023/09/17 02:31:48;;;;;;;7.90;4.40;;;;;;;;;;103892;1289;544793;-74
2023/09/17 02:35:25;;;;;;;8.40;4.40;;;;;;;;;;103787;1293;545010;-74
2023/09/17 02:39:03;;;;;;;8.90;4.10;;;;;;;;;;103884;1292;544848;-75
2023/09/17 02:42:44;;;;;;;7.60;3.80;;;;;;;;;;103729;1288;545048;-76
2023/09/17 02:46:18;;;;;;;8.40;4.20;;;;;;;;;;103760;1291;544729;-74
2023/09/17 02:50:01;;;;;;;8.90;4.10;;;;;;;;;;103631;1292;547856;-74
2023/09/17 02:53:32;;;;;;;8.00;4.00;;;;;;;;;;103743;1289;544732;-75
2023/09/17 02:57:10;;;;;;;7.80;4.10;;;;;;;;;;103773;1292;545614;-75
2023/09/17 03:00:48;;;;;;;8.80;4.70;;;;;;;;;;103846;1292;545164;-75
2023/09/17 03:04:26;;;;;;;8.90;5.10;;;;;;;;;;103843;1288;545039;-74
2023/09/17 03:08:09;;;;;;;7.30;3.90;;;;;;;;;;103485;1292;548074;-75
2023/09/17 03:11:40;;;;;;;8.40;4.30;;;;;;;;;;103738;1289;545163;-74
2023/09/17 03:15:18;;;;;;;7.70;4.40;;;;;;;;;;104012;1291;545058;-75
2023/09/17 03:18:55;;;;;;;12.00;6.30;;;;;;;;;;103745;1292;544912;-74
2023/09/17 03:22:32;;;;;;;10.50;6.00;;;;;;;;;;103737;1289;545510;-75
2023/09/17 03:26:10;;;;;;;10.30;5.90;;;;;;;;;;103775;1292;544867;-74
2023/09/17 03:29:47;;;;;;;9.20;5.60;;;;;;;;;;103776;1291;545230;-74
2023/09/17 03:33:24;;;;;;;9.30;5.10;;;;;;;;;;103695;1292;545285;-75
2023/09/17 03:37:02;;;;;;;10.80;5.70;;;;;;;;;;103524;1292;545985;-74
2023/09/17 03:40:40;;;;;;;9.60;4.70;;;;;;;;;;103797;1292;545023;-74
2023/09/17 03:44:17;;;;;;;9.70;4.10;;;;;;;;;;103771;1290;545072;-74
2023/09/17 03:47:54;;;;;;;10.20;4.80;;;;;;;;;;103553;1294;544989;-75
2023/09/17 03:51:32;;;;;;;9.50;4.80;;;;;;;;;;103760;1295;544876;-74
2023/09/17 03:55:15;;;;;;;8.50;4.80;;;;;;;;;;103553;1292;547890;-73
2023/09/17 03:58:48;;;;;;;8.90;4.60;;;;;;;;;;103744;1291;544933;-75
2023/09/17 04:02:25;;;;;;;9.10;4.60;;;;;;;;;;103938;1292;544964;-75
2023/09/17 04:06:03;;;;;;;9.40;4.60;;;;;;;;;;103802;1291;545064;-74
2023/09/17 04:09:39;;;;;;;10.40;4.40;;;;;;;;;;104026;1289;544998;-74
2023/09/17 04:13:17;;;;;;;7.30;4.10;;;;;;;;;;103726;1292;544906;-74
2023/09/17 04:16:54;;;;;;;7.00;3.70;;;;;;;;;;103797;1289;544951;-75
2023/09/17 04:20:32;;;;;;;7.50;3.40;;;;;;;;;;103771;1289;545061;-74
2023/09/17 04:24:12;;;;;;;9.10;3.90;;;;;;;;;;103798;1292;545345;-74
2023/09/17 04:27:47;;;;;;;7.10;3.60;;;;;;;;;;103862;1292;545032;-74
2023/09/17 04:31:25;;;;;;;9.40;3.70;;;;;;;;;;103793;1290;544603;-74
2023/09/17 04:35:02;;;;;;;6.80;3.70;;;;;;;;;;103750;1289;544790;-74
2023/09/17 04:38:39;;;;;;;7.20;3.50;;;;;;;;;;104017;1291;544976;-74
2023/09/17 04:42:17;;;;;;;8.80;4.40;;;;;;;;;;103762;1295;544861;-74
2023/09/17 04:45:54;;;;;;;7.50;4.00;;;;;;;;;;103755;1291;545117;-75
2023/09/17 04:49:33;;;;;;;8.40;3.70;;;;;;;;;;103791;1291;545394;-74
2023/09/17 04:53:09;;;;;;;7.10;3.50;;;;;;;;;;103800;1289;544623;-75
2023/09/17 04:56:46;;;;;;;6.80;3.70;;;;;;;;;;103838;1289;544979;-74
2023/09/17 05:00:23;;;;;;;9.10;4.00;;;;;;;;;;103905;1289;545253;-77
2023/09/17 05:04:02;;;;;;;7.40;3.90;;;;;;;;;;103576;1293;544860;-76
2023/09/17 05:07:39;;;;;;;8.60;3.90;;;;;;;;;;103675;1292;546015;-76
2023/09/17 05:11:16;;;;;;;7.80;3.60;;;;;;;;;;103694;1290;545175;-75
2023/09/17 05:14:54;;;;;;;7.60;3.60;;;;;;;;;;103515;1294;545519;-74
2023/09/17 05:18:31;;;;;;;7.00;3.60;;;;;;;;;;103501;1293;545235;-74
2023/09/17 05:22:08;;;;;;;7.00;3.70;;;;;;;;;;103789;1292;546414;-74
2023/09/17 05:25:46;;;;;;;10.10;6.40;;;;;;;;;;103893;1289;544976;-75
2023/09/17 05:29:24;;;;;;;9.80;6.60;;;;;;;;;;103748;1289;545330;-74
2023/09/17 05:33:02;;;;;;;9.80;6.00;;;;;;;;;;103826;1290;545027;-75
2023/09/17 05:36:39;;;;;;;9.80;5.30;;;;;;;;;;103792;1288;544785;-74
2023/09/17 05:40:15;;;;;;;8.60;5.10;;;;;;;;;;103739;1290;544813;-74
2023/09/17 05:43:53;;;;;;;9.00;5.30;;;;;;;;;;103760;1291;545712;-74
2023/09/17 05:47:31;;;;;;;8.50;4.80;;;;;;;;;;103750;1289;545251;-75
2023/09/17 05:51:09;;;;;;;9.20;4.20;;;;;;;;;;104055;1288;545508;-75
2023/09/17 05:54:46;;;;;;;9.00;4.40;;;;;;;;;;103833;1290;544980;-74
2023/09/17 05:58:23;;;;;;;7.40;4.20;;;;;;;;;;103886;1292;545934;-75
2023/09/17 06:02:01;;;;;;;8.20;4.30;;;;;;;;;;104281;1282;544747;-75
2023/09/17 06:05:40;;;;;;;7.90;4.40;;;;;;;;;;103982;1292;544721;-74
2023/09/17 06:09:16;;;;;;;7.90;4.00;;;;;;;;;;103678;1294;544926;-74
2023/09/17 06:12:54;;;;;;;7.80;3.70;;;;;;;;;;103882;1289;545107;-74
2023/09/17 06:16:31;;;;;;;7.70;4.00;;;;;;;;;;103784;1292;545006;-72
2023/09/17 06:20:08;;;;;;;7.30;4.00;;;;;;;;;;103945;1295;544924;-74
2023/09/17 06:23:46;;;;;;;6.50;3.60;;;;;;;;;;103741;1294;544969;-75
2023/09/17 06:27:23;;;;;;;7.20;3.70;;;;;;;;;;103758;1292;545042;-75
2023/09/17 06:31:01;;;;;;;7.70;3.70;;;;;;;;;;103624;1290;545452;-75
2023/09/17 06:34:38;;;;;;;6.30;3.60;;;;;;;;;;103710;1292;544767;-74
2023/09/17 06:38:16;;;;;;;7.00;3.40;;;;;;;;;;103816;1288;544986;-74
2023/09/17 06:41:53;;;;;;;6.80;3.50;;;;;;;;;;103774;1291;544770;-74
2023/09/17 06:45:30;;;;;;;6.70;3.70;;;;;;;;;;103684;1291;544837;-75
2023/09/17 06:49:07;;;;;;;6.60;3.80;;;;;;;;;;103746;1292;545736;-74
2023/09/17 06:52:45;;;;;;;6.90;3.50;;;;;;;;;;103820;1290;544961;-74
2023/09/17 06:56:19;;;;;;;6.00;3.30;;;;;;;;;;103746;1292;544761;-74
2023/09/17 07:00:02;;;;;;;8.20;3.40;;;;;;;;;;103723;1291;545002;-74
2023/09/17 07:03:39;;;;;;;7.90;3.40;;;;;;;;;;103716;1291;545163;-74
2023/09/17 07:07:16;;;;;;;7.10;3.40;;;;;;;;;;103780;1292;544709;-74
2023/09/17 07:10:54;;;;;;;9.10;3.50;;;;;;;;;;103724;1292;544984;-74
2023/09/17 07:14:32;;;;;;;7.60;3.50;;;;;;;;;;103731;1292;544869;-73
2023/09/17 07:18:10;;;;;;;6.30;3.50;;;;;;;;;;103742;1289;544776;-74
2023/09/17 07:21:46;;;;;;;6.80;3.00;;;;;;;;;;103794;1291;544868;-74
2023/09/17 07:25:23;;;;;;;6.40;3.50;;;;;;;;;;103913;1296;545004;-73
2023/09/17 07:29:03;;;;;;;5.60;3.20;;;;;;;;;;103751;1289;544740;-74
2023/09/17 07:32:39;;;;;;;6.00;3.10;;;;;;;;;;104022;1292;544838;-73
2023/09/17 07:36:16;;;;;;;8.00;3.90;;;;;;;;;;104491;1283;545391;-74
2023/09/17 07:39:58;;;;;;;6.10;3.60;;;;;;;;;;103788;1289;544895;-74
2023/09/17 07:43:31;;;;;;;6.00;3.40;;;;;;;;;;103725;1291;544917;-74
2023/09/17 07:47:09;;;;;;;6.00;3.20;;;;;;;;;;104094;1289;545527;-74
2023/09/17 07:50:59;;;;;;;9.30;3.10;;;;;;;;;;103731;1292;545350;-73
2023/09/17 07:54:23;;;;;;;7.00;3.30;;;;;;;;;;103488;1298;545106;-74
2023/09/17 07:58:01;;;;;;;5.70;3.40;;;;;;;;;;103765;1290;545228;-74
2023/09/17 08:01:47;;;;;;;6.20;3.20;;;;;;;;;;103612;1291;548367;-74
2023/09/17 08:05:17;;;;;;;5.70;2.90;;;;;;;;;;103941;1291;545048;-74
2023/09/17 08:08:53;;;;;;;7.30;3.50;;;;;;;;;;103647;1293;544972;-74
2023/09/17 08:12:31;;;;;;;7.10;3.50;;;;;;;;;;103711;1292;544966;-74
2023/09/17 08:16:14;;;;;;;6.60;3.10;;;;;;;;;;103724;1289;547753;-74
2023/09/17 08:19:46;;;;;;;6.40;3.50;;;;;;;;;;104113;1290;545070;-74
2023/09/17 08:23:24;;;;;;;6.70;3.50;;;;;;;;;;103704;1292;544706;-74
2023/09/17 08:27:01;;;;;;;6.10;3.20;;;;;;;;;;103671;1291;545664;-75
2023/09/17 08:30:38;;;;;;;5.20;3.10;;;;;;;;;;103802;1293;546375;-74
2023/09/17 08:34:16;;;;;;;7.00;3.30;;;;;;;;;;103603;1292;545326;-74
2023/09/17 08:37:53;;;;;;;5.70;3.40;;;;;;;;;;103692;1292;545002;-75
2023/09/17 08:41:30;;;;;;;6.80;3.60;;;;;;;;;;103553;1292;545053;-75
2023/09/17 08:45:09;;;;;;;6.80;3.10;;;;;;;;;;103682;1290;544976;-76
2023/09/17 08:48:46;;;;;;;6.40;3.30;;;;;;;;;;103626;1295;544987;-74
2023/09/17 08:52:25;;;;;;;5.40;3.00;;;;;;;;;;103757;1289;544785;-75
2023/09/17 08:56:01;;;;;;;7.00;3.00;;;;;;;;;;103656;1291;545462;-74
2023/09/17 08:59:40;;;;;;;6.40;3.10;;;;;;;;;;103792;1291;545905;-72
2023/09/17 09:03:17;;;;;;;6.40;2.90;;;;;;;;;;104683;1283;544983;-74
2023/09/17 09:06:54;;;;;;;6.10;3.00;;;;;;;;;;103759;1292;545317;-73
2023/09/17 09:10:31;;;;;;;6.20;3.10;;;;;;;;;;103620;1302;544865;-74
2023/09/17 09:14:08;;;;;;;6.10;3.10;;;;;;;;;;103613;1291;545035;-74
2023/09/17 09:17:46;;;;;;;5.20;3.20;;;;;;;;;;103724;1291;544721;-74
2023/09/17 09:21:24;;;;;;;6.80;3.10;;;;;;;;;;103697;1298;544943;-74
2023/09/17 09:25:01;;;;;;;5.70;2.90;;;;;;;;;;103898;1288;546597;-74
2023/09/17 09:28:38;;;;;;;5.90;2.80;;;;;;;;;;103690;1291;544710;-74
2023/09/17 09:32:17;;;;;;;5.50;2.80;;;;;;;;;;103659;1293;544759;-73
2023/09/17 09:35:53;;;;;;;6.00;3.10;;;;;;;;;;103752;1292;544730;-72
2023/09/17 09:39:31;;;;;;;5.50;2.70;;;;;;;;;;103685;1291;545773;-75
2023/09/17 09:43:16;;;;;;;4.50;2.80;;;;;;;;;;103653;1289;544720;-74
2023/09/17 09:46:45;;;;;;;7.60;3.20;;;;;;;;;;103745;1291;545453;-73
2023/09/17 09:50:31;;;;;;;5.90;3.30;;;;;;;;;;103741;1290;545680;-74
2023/09/17 09:54:06;;;;;;;6.50;3.10;;;;;;;;;;103455;1292;548665;-74
2023/09/17 09:57:37;;;;;;;7.60;2.70;;;;;;;;;;103788;1289;545036;-74
2023/09/17 10:01:20;;;;;;;7.70;2.60;;;;;;;;;;104173;1285;548068;-75
2023/09/17 10:04:52;;;;;;;5.70;2.90;;;;;;;;;;103810;1289;545014;-73
2023/09/17 10:08:30;;;;;;;4.90;2.60;;;;;;;;;;103688;1289;544746;-73
2023/09/17 10:12:07;;;;;;;5.40;3.10;;;;;;;;;;103742;1292;544985;-75
2023/09/17 10:16:06;;;;;;;6.80;3.30;;;;;;;;;;103897;1286;547979;-73
2023/09/17 10:19:31;;;;;;;5.70;2.80;;;;;;;;;;103546;1294;547923;-74
2023/09/17 10:23:00;;;;;;;4.90;2.90;;;;;;;;;;103613;1292;545447;-75
2023/09/17 10:26:42;;;;;;;5.20;2.80;;;;;;;;;;103742;1290;545383;-73
2023/09/17 10:30:15;;;;;;;5.50;2.80;;;;;;;;;;103893;1291;545125;-74
2023/09/17 10:33:52;;;;;;;4.60;2.50;;;;;;;;;;104146;1289;545316;-73
2023/09/17 10:37:31;;;;;;;5.50;2.90;;;;;;;;;;103611;1292;545867;-74
2023/09/17 10:41:08;;;;;;;6.50;3.50;;;;;;;;;;103695;1291;546334;-72
2023/09/17 10:44:46;;;;;;;6.30;3.20;;;;;;;;;;103748;1289;545544;-74
2023/09/17 10:48:24;;;;;;;6.40;2.90;;;;;;;;;;103770;1290;544914;-73
2023/09/17 10:51:59;;;;;;;6.20;3.50;;;;;;;;;;103858;1291;544945;-73
2023/09/17 10:55:40;;;;;;;6.70;3.90;;;;;;;;;;103785;1291;544741;-72
2023/09/17 10:59:16;;;;;;;5.30;3.00;;;;;;;;;;103933;1291;544914;-74
2023/09/17 11:02:55;;;;;;;5.70;3.30;;;;;;;;;;103867;1288;544784;-71
2023/09/17 11:06:31;;;;;;;5.90;2.90;;;;;;;;;;103839;1291;544980;-74
2023/09/17 11:10:04;;;;;;;5.40;2.70;;;;;;;;;;103726;1292;544966;-72
2023/09/17 11:13:47;;;;;;;5.70;2.80;;;;;;;;;;103623;1295;545418;-73
2023/09/17 11:17:32;;;;;;;4.80;2.80;;;;;;;;;;104055;1295;544952;-74
2023/09/17 11:21:09;;;;;;;6.80;2.80;;;;;;;;;;103604;1291;544836;-73
2023/09/17 11:24:40;;;;;;;4.80;2.60;;;;;;;;;;103955;1292;545084;-73
2023/09/17 11:28:16;;;;;;;5.20;2.40;;;;;;;;;;103731;1292;545475;-75
2023/09/17 11:31:53;;;;;;;5.90;3.10;;;;;;;;;;103678;1292;545773;-74
2023/09/17 11:35:32;;;;;;;8.60;3.30;;;;;;;;;;103772;1292;546025;-74
2023/09/17 11:39:09;;;;;;;6.50;3.30;;;;;;;;;;103808;1292;544790;-74
2023/09/17 11:42:46;;;;;;;6.20;3.10;;;;;;;;;;103616;1291;545540;-73
2023/09/17 11:46:23;;;;;;;5.50;3.10;;;;;;;;;;103766;1289;544972;-74
2023/09/17 11:49:57;;;;;;;4.80;2.50;;;;;;;;;;104079;1289;545678;-72
2023/09/17 11:53:59;;;;;;;7.20;3.20;;;;;;;;;;104361;1285;544861;-74
2023/09/17 11:57:22;;;;;;;5.40;2.90;;;;;;;;;;103699;1292;544928;-74
2023/09/17 12:00:55;;;;;;;6.90;3.00;;;;;;;;;;103696;1292;545929;-72
2023/09/17 12:04:35;;;;;;;5.30;2.80;;;;;;;;;;104074;1286;544596;-73
2023/09/17 12:08:11;;;;;;;7.00;2.50;;;;;;;;;;103840;1289;544950;-75
2023/09/17 12:11:47;;;;;;;6.00;2.50;;;;;;;;;;103772;1288;545053;-74
2023/09/17 12:15:26;;;;;;;5.30;2.90;;;;;;;;;;103953;1301;544760;-73
2023/09/17 12:19:03;;;;;;;5.60;2.70;;;;;;;;;;103516;1295;545108;-72
2023/09/17 12:22:40;;;;;;;5.50;2.60;;;;;;;;;;104201;1289;545248;-74
2023/09/17 12:26:23;;;;;;;5.50;3.00;;;;;;;;;;103819;1301;545417;-73
2023/09/17 12:29:55;;;;;;;4.70;2.30;;;;;;;;;;103722;1290;544772;-74
2023/09/17 12:33:33;;;;;;;6.30;2.60;;;;;;;;;;103765;1293;545079;-74
2023/09/17 12:37:11;;;;;;;5.50;2.90;;;;;;;;;;103723;1292;545510;-74
2023/09/17 12:40:47;;;;;;;4.30;2.60;;;;;;;;;;103653;1291;544817;-74
2023/09/17 12:44:26;;;;;;;5.00;2.80;;;;;;;;;;103497;1295;544964;-74
2023/09/17 12:48:08;;;;;;;5.60;2.70;;;;;;;;;;103431;1292;547798;-74
2023/09/17 12:51:39;;;;;;;4.60;2.60;;;;;;;;;;103763;1291;544894;-74
2023/09/17 12:55:17;;;;;;;5.30;2.90;;;;;;;;;;103793;1288;545349;-74
2023/09/17 12:59:06;;;;;;;5.40;3.00;;;;;;;;;;103647;1292;547842;-74
2023/09/17 13:02:34;;;;;;;6.20;2.90;;;;;;;;;;103731;1289;545584;-73
2023/09/17 13:06:10;;;;;;;6.90;2.90;;;;;;;;;;103766;1289;545054;-74
2023/09/17 13:09:47;;;;;;;5.60;2.60;;;;;;;;;;104006;1289;545417;-73
2023/09/17 13:13:25;;;;;;;6.70;3.00;;;;;;;;;;103736;1291;545443;-74
2023/09/17 13:17:02;;;;;;;6.40;2.70;;;;;;;;;;103650;1291;545020;-74
2023/09/17 13:20:39;;;;;;;5.90;3.10;;;;;;;;;;104559;1286;544849;-73
2023/09/17 13:24:18;;;;;;;4.60;2.60;;;;;;;;;;103527;1295;545005;-75
2023/09/17 13:27:54;;;;;;;5.50;2.90;;;;;;;;;;103836;1289;545097;-73
2023/09/17 13:31:39;;;;;;;5.90;2.90;;;;;;;;;;103561;1293;548183;-74
2023/09/17 13:35:10;;;;;;;5.40;3.00;;;;;;;;;;103784;1289;544863;-75
2023/09/17 13:38:48;;;;;;;4.90;2.70;;;;;;;;;;103793;1289;544620;-74
2023/09/17 13:42:21;;;;;;;5.40;3.10;;;;;;;;;;103942;1289;544842;-74
2023/09/17 13:46:03;;;;;;;5.60;3.00;;;;;;;;;;103697;1292;544816;-74
2023/09/17 13:49:41;;;;;;;5.30;3.10;;;;;;;;;;104116;1292;544772;-74
2023/09/17 13:53:19;;;;;;;5.10;3.10;;;;;;;;;;103635;1291;545355;-74
2023/09/17 13:56:56;;;;;;;6.40;3.20;;;;;;;;;;103805;1289;544825;-74
2023/09/17 14:00:33;;;;;;;5.60;2.80;;;;;;;;;;104098;1298;544957;-72
2023/09/17 14:04:11;;;;;;;5.50;3.00;;;;;;;;;;104011;1289;544823;-74
2023/09/17 14:07:48;;;;;;;5.60;3.10;;;;;;;;;;103701;1289;544826;-74
2023/09/17 14:11:25;;;;;;;5.60;2.90;;;;;;;;;;103944;1292;544802;-73
2023/09/17 14:15:34;;;;;;;5.80;2.80;;;;;;;;;;103553;1294;547833;-73
2023/09/17 14:18:41;;;;;;;5.90;3.10;;;;;;;;;;103771;1289;545045;-74
2023/09/17 14:22:24;;;;;;;5.60;3.10;;;;;;;;;;103854;1291;544676;-72
2023/09/17 14:26:02;;;;;;;6.60;3.20;;;;;;;;;;103838;1289;544976;-73
2023/09/17 14:29:40;;;;;;;5.60;3.00;;;;;;;;;;103777;1289;544859;-72
2023/09/17 14:33:16;;;;;;;5.60;2.80;;;;;;;;;;103867;1288;544739;-74
2023/09/17 14:36:54;;;;;;;4.90;3.00;;;;;;;;;;103739;1291;544969;-74
2023/09/17 14:40:31;;;;;;;4.90;2.30;;;;;;;;;;104136;1285;545055;-73
2023/09/17 14:44:09;;;;;;;5.50;3.10;;;;;;;;;;103878;1292;545748;-73
2023/09/17 14:47:46;;;;;;;5.40;3.30;;;;;;;;;;103740;1291;545902;-73
2023/09/17 14:51:23;;;;;;;6.70;3.60;;;;;;;;;;103743;1290;544812;-72
2023/09/17 14:55:02;;;;;;;5.30;2.80;;;;;;;;;;103943;1289;544943;-74
2023/09/17 14:58:39;;;;;;;6.80;3.10;;;;;;;;;;103752;1290;544630;-72
2023/09/17 15:02:17;;;;;;;6.20;3.10;;;;;;;;;;104047;1289;544761;-72
2023/09/17 15:05:54;;;;;;;7.10;3.40;;;;;;;;;;103816;1291;545542;-72
2023/09/17 15:09:31;;;;;;;6.00;3.10;;;;;;;;;;103726;1289;544764;-73
2023/09/17 15:13:09;;;;;;;5.40;3.20;;;;;;;;;;103752;1289;544807;-72
2023/09/17 15:16:46;;;;;;;6.00;3.40;;;;;;;;;;103747;1290;544977;-74
2023/09/17 15:20:24;;;;;;;5.10;2.90;;;;;;;;;;103898;1289;544630;-75
2023/09/17 15:24:03;;;;;;;5.00;3.10;;;;;;;;;;103816;1289;544763;-72
2023/09/17 15:27:38;;;;;;;6.60;3.20;;;;;;;;;;103761;1290;544866;-74
2023/09/17 15:31:22;;;;;;;6.20;3.00;;;;;;;;;;104363;1283;544973;-74
2023/09/17 15:34:53;;;;;;;6.30;3.50;;;;;;;;;;103774;1288;547253;-73
2023/09/17 15:38:31;;;;;;;6.60;3.20;;;;;;;;;;104119;1295;544918;-73
2023/09/17 15:42:14;;;;;;;6.40;3.10;;;;;;;;;;103474;1292;548182;-74
2023/09/17 15:45:46;;;;;;;6.60;3.30;;;;;;;;;;103750;1289;545420;-73
2023/09/17 15:49:29;;;;;;;6.20;3.00;;;;;;;;;;103555;1292;547929;-74
2023/09/17 15:53:01;;;;;;;6.70;3.30;;;;;;;;;;103910;1289;544979;-73
2023/09/17 15:56:38;;;;;;;5.60;2.30;;;;;;;;;;103784;1289;545682;-74
2023/09/17 16:00:16;;;;;;;5.60;2.60;;;;;;;;;;104008;1291;545332;-73
2023/09/17 16:03:53;;;;;;;5.80;2.90;;;;;;;;;;103487;1295;544968;-73
2023/09/17 16:07:32;;;;;;;5.60;2.80;;;;;;;;;;103726;1299;545609;-74
2023/09/17 16:11:14;;;;;;;5.00;2.70;;;;;;;;;;103455;1291;548020;-74
2023/09/17 16:14:45;;;;;;;5.90;3.00;;;;;;;;;;103843;1292;545172;-73
2023/09/17 16:18:23;;;;;;;5.70;2.80;;;;;;;;;;103695;1291;545064;-74
2023/09/17 16:22:00;;;;;;;5.80;3.00;;;;;;;;;;103788;1289;544730;-74
2023/09/17 16:25:39;;;;;;;7.10;3.10;;;;;;;;;;104010;1292;545762;-74
2023/09/17 16:29:15;;;;;;;5.60;2.90;;;;;;;;;;103754;1290;544863;-74
2023/09/17 16:32:53;;;;;;;6.10;3.30;;;;;;;;;;103936;1291;544959;-75
2023/09/17 16:36:30;;;;;;;5.90;3.40;;;;;;;;;;103729;1292;545059;-74
2023/09/17 16:40:09;;;;;;;7.70;3.60;;;;;;;;;;103997;1292;545200;-74
2023/09/17 16:43:45;;;;;;;8.20;3.40;;;;;;;;;;103706;1291;544793;-73
2023/09/17 16:47:23;;;;;;;8.60;3.20;;;;;;;;;;103967;1291;545525;-73
2023/09/17 16:51:06;;;;;;;6.40;3.20;;;;;;;;;;103541;1292;548023;-74
2023/09/17 16:54:37;;;;;;;8.00;3.70;;;;;;;;;;103654;1292;545672;-73
2023/09/17 16:58:18;;;;;;;6.90;4.20;;;;;;;;;;103811;1292;545760;-74
2023/09/17 17:01:52;;;;;;;8.00;3.50;;;;;;;;;;103657;1292;544966;-74
2023/09/17 17:05:30;;;;;;;7.20;3.90;;;;;;;;;;103818;1289;545049;-75
2023/09/17 17:09:08;;;;;;;7.00;3.50;;;;;;;;;;103747;1292;544804;-74
2023/09/17 17:12:44;;;;;;;7.00;3.80;;;;;;;;;;103831;1289;545747;-74
2023/09/17 17:16:19;;;;;;;9.60;4.60;;;;;;;;;;103786;1289;545166;-74
2023/09/17 17:20:03;;;;;;;12.50;7.30;;;;;;;;;;103898;1292;544732;-75
2023/09/17 17:23:39;;;;;;;15.00;8.70;;;;;;;;;;103732;1291;544775;-74
2023/09/17 17:27:16;;;;;;;17.20;11.00;;;;;;;;;;103926;1289;544916;-74
2023/09/17 17:30:54;;;;;;;14.90;8.60;;;;;;;;;;103498;1295;544963;-73
2023/09/17 17:34:31;;;;;;;15.20;9.30;;;;;;;;;;103907;1291;544715;-74
2023/09/17 17:38:09;;;;;;;15.90;9.40;;;;;;;;;;103674;1295;544609;-74
2023/09/17 17:41:46;;;;;;;16.90;10.40;;;;;;;;;;103888;1289;546365;-74
2023/09/17 17:45:24;;;;;;;19.90;10.60;;;;;;;;;;104568;1282;544801;-73
2023/09/17 17:49:21;;;;;;;14.70;9.20;;;;;;;;;;103674;1294;548217;-73
2023/09/17 17:52:39;;;;;;;16.20;9.20;;;;;;;;;;103757;1289;544784;-73
2023/09/17 17:56:12;;;;;;;15.20;10.10;;;;;;;;;;103790;1292;545034;-74
2023/09/17 17:59:56;;;;;;;15.50;10.10;;;;;;;;;;104455;1283;544782;-72
2023/09/17 18:03:32;;;;;;;15.90;9.70;;;;;;;;;;103739;1290;544837;-74
2023/09/17 18:07:30;;;;;;;15.90;9.20;;;;;;;;;;103558;1295;547843;-75
2023/09/17 18:10:48;;;;;;;15.80;10.20;;;;;;;;;;103722;1292;545697;-74
2023/09/17 18:14:26;;;;;;;15.80;10.40;;;;;;;;;;103686;1292;545004;-74
2023/09/17 18:18:03;;;;;;;15.50;10.10;;;;;;;;;;103737;1294;544606;-74
2023/09/17 18:21:40;;;;;;;13.50;9.80;;;;;;;;;;103748;1291;545710;-74
2023/09/17 18:25:17;;;;;;;16.30;9.90;;;;;;;;;;103733;1291;545070;-74
2023/09/17 18:28:57;;;;;;;17.40;10.90;;;;;;;;;;103717;1293;544915;-75
2023/09/17 18:32:33;;;;;;;18.60;11.00;;;;;;;;;;103604;1291;545336;-74
2023/09/17 18:36:12;;;;;;;16.90;11.30;;;;;;;;;;103616;1290;545027;-74
2023/09/17 18:39:47;;;;;;;18.30;11.10;;;;;;;;;;103694;1291;545036;-74
2023/09/17 18:43:24;;;;;;;17.20;11.50;;;;;;;;;;103764;1295;545029;-75
2023/09/17 18:47:03;;;;;;;18.10;12.20;;;;;;;;;;103724;1291;545453;-74
2023/09/17 18:50:46;;;;;;;18.60;12.30;;;;;;;;;;103564;1293;548107;-74
2023/09/17 18:54:19;;;;;;;20.60;13.80;;;;;;;;;;103760;1290;544821;-75
2023/09/17 18:57:55;;;;;;;20.10;12.20;;;;;;;;;;103501;1295;545545;-74
2023/09/17 19:01:32;;;;;;;17.20;11.00;;;;;;;;;;103739;1292;544795;-74
2023/09/17 19:05:12;;;;;;;16.30;11.20;;;;;;;;;;103801;1291;545020;-74
2023/09/17 19:08:47;;;;;;;17.20;11.10;;;;;;;;;;103463;1295;545438;-74
2023/09/17 19:12:27;;;;;;;18.30;11.90;;;;;;;;;;103733;1292;544777;-74
2023/09/17 19:16:01;;;;;;;18.90;12.90;;;;;;;;;;103745;1292;544973;-75
2023/09/17 19:19:39;;;;;;;18.10;11.40;;;;;;;;;;103784;1292;544923;-73
2023/09/17 19:23:17;;;;;;;15.20;9.20;;;;;;;;;;103445;1298;545347;-73
2023/09/17 19:26:54;;;;;;;14.80;9.80;;;;;;;;;;103729;1292;544797;-75
2023/09/17 19:30:32;;;;;;;14.90;9.10;;;;;;;;;;103782;1289;544880;-74
2023/09/17 19:34:10;;;;;;;15.50;9.10;;;;;;;;;;103737;1289;544767;-75
2023/09/17 19:37:47;;;;;;;13.80;8.00;;;;;;;;;;103682;1292;545385;-75
2023/09/17 19:41:33;;;;;;;11.20;7.30;;;;;;;;;;103585;1289;547954;-75
2023/09/17 19:45:02;;;;;;;12.30;7.60;;;;;;;;;;103733;1290;545318;-74
2023/09/17 19:48:39;;;;;;;11.90;7.00;;;;;;;;;;103530;1295;544977;-74
2023/09/17 19:52:18;;;;;;;10.80;6.50;;;;;;;;;;104324;1284;544718;-73
2023/09/17 19:55:55;;;;;;;10.80;6.10;;;;;;;;;;103684;1289;544990;-74
2023/09/17 19:59:37;;;;;;;10.30;5.90;;;;;;;;;;103589;1292;547756;-74
2023/09/17 20:03:10;;;;;;;9.40;5.40;;;;;;;;;;103792;1289;545556;-75
2023/09/17 20:06:46;;;;;;;9.90;5.40;;;;;;;;;;103762;1291;545415;-74
2023/09/17 20:10:24;;;;;;;9.90;6.00;;;;;;;;;;104076;1289;544967;-74
2023/09/17 20:14:02;;;;;;;10.70;5.50;;;;;;;;;;103848;1289;545617;-74
2023/09/17 20:17:39;;;;;;;10.70;6.30;;;;;;;;;;104342;1285;545196;-74
2023/09/17 20:21:16;;;;;;;11.10;7.00;;;;;;;;;;104087;1288;544915;-74
2023/09/17 20:24:57;;;;;;;10.70;7.10;;;;;;;;;;103754;1294;545097;-74
2023/09/17 20:28:31;;;;;;;9.70;7.00;;;;;;;;;;103874;1288;544839;-74
2023/09/17 20:32:11;;;;;;;9.10;6.10;;;;;;;;;;103573;1291;544832;-74
2023/09/17 20:35:46;;;;;;;13.90;6.30;;;;;;;;;;103794;1291;545060;-75
2023/09/17 20:39:26;;;;;;;11.60;6.10;;;;;;;;;;103609;1296;544728;-74
2023/09/17 20:43:01;;;;;;;10.60;6.90;;;;;;;;;;103989;1291;544902;-75
2023/09/17 20:46:39;;;;;;;8.70;5.80;;;;;;;;;;103795;1290;545446;-74
2023/09/17 20:50:16;;;;;;;9.20;5.70;;;;;;;;;;104118;1289;546174;-74
2023/09/17 20:53:54;;;;;;;10.40;6.30;;;;;;;;;;103998;1292;545508;-75
2023/09/17 20:57:31;;;;;;;9.90;6.30;;;;;;;;;;103723;1291;544801;-75
2023/09/17 21:01:09;;;;;;;10.60;6.80;;;;;;;;;;103816;1289;545391;-75